createdAt,value
2017-10-18T00:00:50.997Z,5.82
2017-10-18T00:03:19.232Z,6.53
2017-10-18T00:05:47.580Z,5.28
2017-10-18T00:08:15.814Z,6.32
2017-10-18T00:10:44.085Z,4.65
2017-10-18T00:13:12.352Z,5.70
2017-10-18T00:15:40.580Z,5.35
2017-10-18T00:18:08.817Z,4.90
2017-10-18T00:20:37.936Z,5.43
2017-10-18T00:23:06.173Z,5.47
2017-10-18T00:25:34.419Z,6.00
2017-10-18T00:28:03.425Z,4.53
2017-10-18T00:30:31.888Z,5.35
2017-10-18T00:33:00.167Z,4.55
2017-10-18T00:35:28.476Z,4.70
2017-10-18T00:37:57.507Z,5.20
2017-10-18T00:40:25.763Z,5.47
2017-10-18T00:42:54.039Z,5.37
2017-10-18T00:45:22.300Z,4.82
2017-10-18T00:47:50.571Z,5.62
2017-10-18T00:50:18.831Z,5.27
2017-10-18T00:52:47.143Z,4.70
2017-10-18T00:55:15.403Z,5.25
2017-10-18T00:57:43.716Z,6.43
2017-10-18T01:00:12.007Z,5.03
2017-10-18T01:02:40.264Z,5.05
2017-10-18T01:05:08.553Z,4.70
2017-10-18T01:07:37.574Z,4.67
2017-10-18T01:10:05.926Z,5.50
2017-10-18T01:12:34.174Z,4.80
2017-10-18T01:15:02.452Z,4.75
2017-10-18T01:17:30.710Z,5.37
2017-10-18T01:19:59.018Z,5.30
2017-10-18T01:22:28.040Z,5.43
2017-10-18T01:24:56.304Z,5.30
2017-10-18T01:27:24.591Z,5.10
2017-10-18T01:29:52.843Z,5.73
2017-10-18T01:32:21.159Z,5.40
2017-10-18T01:34:49.420Z,5.10
2017-10-18T01:37:18.442Z,5.25
2017-10-18T01:39:46.723Z,5.55
2017-10-18T01:42:16.495Z,6.20
2017-10-18T01:44:44.767Z,4.77
2017-10-18T01:47:13.047Z,5.78
2017-10-18T01:49:41.534Z,5.70
2017-10-18T01:52:10.624Z,5.50
2017-10-18T01:54:39.643Z,5.37
2017-10-18T01:57:07.980Z,4.87
2017-10-18T01:59:36.243Z,4.65
2017-10-18T02:02:04.720Z,4.93
2017-10-18T02:04:32.983Z,4.80
2017-10-18T02:07:01.267Z,4.57
2017-10-18T02:09:29.527Z,4.80
2017-10-18T02:11:57.791Z,4.90
2017-10-18T02:14:26.067Z,5.12
2017-10-18T02:16:54.330Z,4.50
2017-10-18T02:19:22.611Z,5.53
2017-10-18T02:21:51.635Z,5.03
2017-10-18T02:24:19.924Z,4.95
2017-10-18T02:26:48.178Z,5.40
2017-10-18T02:29:16.439Z,5.03
2017-10-18T02:31:46.648Z,5.30
2017-10-18T02:34:14.910Z,4.77
2017-10-18T02:36:43.366Z,5.40
2017-10-18T02:39:11.631Z,5.43
2017-10-18T02:41:39.930Z,4.90
2017-10-18T02:44:08.955Z,4.80
2017-10-18T02:46:37.210Z,5.28
2017-10-18T02:49:05.487Z,4.55
2017-10-18T02:51:33.747Z,5.27
2017-10-18T02:54:02.027Z,5.35
2017-10-18T02:56:30.290Z,5.32
2017-10-18T02:58:58.565Z,5.68
2017-10-18T03:01:27.589Z,4.30
2017-10-18T03:03:55.871Z,5.07
2017-10-18T03:06:24.143Z,4.70
2017-10-18T03:08:52.439Z,4.53
2017-10-18T03:11:21.482Z,4.67
2017-10-18T03:13:49.736Z,5.47
2017-10-18T03:16:18.011Z,5.72
2017-10-18T03:18:47.775Z,5.40
2017-10-18T03:21:16.054Z,4.47
2017-10-18T03:23:44.327Z,4.97
2017-10-18T03:26:12.651Z,4.68
2017-10-18T03:28:40.912Z,5.22
2017-10-18T03:31:09.171Z,5.75
2017-10-18T03:33:37.444Z,5.25
2017-10-18T03:36:05.698Z,5.50
2017-10-18T03:38:33.979Z,5.37
2017-10-18T03:41:02.244Z,5.68
2017-10-18T03:43:30.515Z,4.70
2017-10-18T03:45:58.780Z,5.17
2017-10-18T03:48:27.036Z,5.00
2017-10-18T03:50:56.078Z,5.12
2017-10-18T03:53:24.340Z,4.40
2017-10-18T03:55:52.639Z,5.40
2017-10-18T03:58:20.894Z,4.40
2017-10-18T04:00:49.154Z,5.72
2017-10-18T04:03:17.431Z,5.37
2017-10-18T04:05:45.694Z,6.33
2017-10-18T04:08:13.969Z,4.70
2017-10-18T04:10:42.991Z,5.60
2017-10-18T04:13:11.303Z,5.10
2017-10-18T04:15:40.327Z,5.07
2017-10-18T04:18:08.591Z,5.10
2017-10-18T04:20:36.876Z,5.82
2017-10-18T04:23:05.138Z,5.05
2017-10-18T04:25:33.411Z,5.15
2017-10-18T04:28:01.667Z,6.15
2017-10-18T04:30:29.983Z,5.72
2017-10-18T04:32:58.242Z,5.87
2017-10-18T04:35:26.507Z,5.20
2017-10-18T04:37:54.782Z,5.20
2017-10-18T04:40:23.035Z,5.80
2017-10-18T04:42:51.311Z,5.47
2017-10-18T04:45:19.580Z,5.12
2017-10-18T04:47:47.921Z,5.12
2017-10-18T04:50:16.183Z,4.60
2017-10-18T04:52:44.488Z,6.10
2017-10-18T04:55:12.764Z,4.97
2017-10-18T04:57:41.014Z,6.25
2017-10-18T05:00:09.292Z,5.20
2017-10-18T05:02:38.316Z,5.30
2017-10-18T05:05:06.616Z,4.78
2017-10-18T05:07:34.998Z,5.30
2017-10-18T05:10:03.263Z,5.45
2017-10-18T05:12:32.303Z,5.30
2017-10-18T05:15:01.380Z,6.25
2017-10-18T05:17:29.656Z,5.23
2017-10-18T05:19:57.915Z,5.93
2017-10-18T05:22:26.198Z,5.85
2017-10-18T05:24:55.223Z,5.47
2017-10-18T05:27:23.532Z,5.82
2017-10-18T05:29:52.232Z,5.70
2017-10-18T05:32:20.484Z,6.20
2017-10-18T05:34:48.762Z,6.90
2017-10-18T05:37:17.025Z,6.53
2017-10-18T05:39:45.315Z,5.55
2017-10-18T05:42:13.571Z,5.95
2017-10-18T05:44:41.870Z,6.32
2017-10-18T05:47:11.032Z,6.25
2017-10-18T05:49:39.287Z,6.90
2017-10-18T05:52:07.569Z,6.15
2017-10-18T05:54:35.823Z,5.22
2017-10-18T05:57:04.107Z,5.60
2017-10-18T05:59:33.141Z,5.97
2017-10-18T06:02:01.435Z,6.70
2017-10-18T06:04:30.455Z,5.27
2017-10-18T06:06:58.711Z,5.20
2017-10-18T06:09:26.987Z,5.62
2017-10-18T06:11:55.247Z,5.70
2017-10-18T06:14:23.531Z,6.43
2017-10-18T06:16:51.789Z,5.95
2017-10-18T06:19:20.091Z,6.50
2017-10-18T06:21:49.595Z,7.35
2017-10-18T06:24:17.859Z,6.10
2017-10-18T06:26:46.131Z,6.60
2017-10-18T06:29:14.399Z,7.32
2017-10-18T06:31:42.686Z,8.33
2017-10-18T06:34:11.071Z,7.35
2017-10-18T06:36:39.363Z,6.10
2017-10-18T06:39:08.388Z,7.03
2017-10-18T06:41:36.651Z,7.27
2017-10-18T06:44:04.927Z,6.07
2017-10-18T06:46:33.190Z,7.95
2017-10-18T06:49:01.468Z,7.45
2017-10-18T06:51:30.499Z,7.65
2017-10-18T06:53:58.819Z,7.30
2017-10-18T06:56:27.095Z,7.75
2017-10-18T06:58:55.368Z,7.45
2017-10-18T07:01:23.642Z,6.70
2017-10-18T07:03:51.908Z,7.18
2017-10-18T07:06:20.190Z,7.00
2017-10-18T07:08:48.462Z,7.70
2017-10-18T07:11:16.751Z,8.70
2017-10-18T07:13:45.019Z,7.37
2017-10-18T07:16:13.280Z,6.70
2017-10-18T07:18:41.556Z,7.00
2017-10-18T07:21:09.835Z,6.95
2017-10-18T07:23:38.124Z,8.05
2017-10-18T07:26:06.379Z,7.60
2017-10-18T07:28:36.553Z,7.37
2017-10-18T07:31:04.859Z,7.17
2017-10-18T07:33:33.895Z,7.70
2017-10-18T07:36:02.200Z,8.38
2017-10-18T07:38:30.455Z,8.85
2017-10-18T07:40:58.739Z,8.93
2017-10-18T07:43:27.028Z,9.02
2017-10-18T07:45:55.335Z,8.23
2017-10-18T07:48:23.603Z,7.53
2017-10-18T07:50:51.880Z,8.65
2017-10-18T07:53:20.923Z,8.13
2017-10-18T07:55:49.191Z,9.15
2017-10-18T07:58:17.478Z,8.50
2017-10-18T08:00:46.518Z,9.07
2017-10-18T08:03:14.826Z,9.48
2017-10-18T08:05:43.103Z,9.32
2017-10-18T08:08:11.399Z,10.65
2017-10-18T08:10:39.695Z,10.67
2017-10-18T08:13:08.741Z,9.65
2017-10-18T08:15:37.023Z,10.07
2017-10-18T08:18:05.300Z,10.82
2017-10-18T08:20:34.359Z,11.33
2017-10-18T08:23:02.635Z,13.43
2017-10-18T08:25:31.714Z,11.98
2017-10-18T08:28:00.803Z,11.55
2017-10-18T08:30:29.863Z,11.65
2017-10-18T08:32:58.134Z,11.30
2017-10-18T08:35:27.191Z,11.93
2017-10-18T08:37:55.463Z,12.45
2017-10-18T08:40:24.755Z,12.68
2017-10-18T08:42:53.036Z,11.12
2017-10-18T08:45:22.079Z,12.20
2017-10-18T08:47:51.883Z,11.25
2017-10-18T08:50:20.163Z,12.52
2017-10-18T08:52:49.232Z,11.93
2017-10-18T08:55:17.507Z,11.10
2017-10-18T08:57:46.583Z,11.50
2017-10-18T09:00:15.636Z,12.27
2017-10-18T09:02:43.931Z,12.82
2017-10-18T09:05:12.985Z,13.57
2017-10-18T09:07:41.287Z,13.15
2017-10-18T09:10:09.581Z,12.53
2017-10-18T09:12:37.850Z,14.85
2017-10-18T09:15:06.144Z,12.68
2017-10-18T09:17:34.428Z,14.27
2017-10-18T09:20:03.483Z,13.43
2017-10-18T09:22:31.762Z,14.73
2017-10-18T09:25:00.867Z,13.90
2017-10-18T09:27:29.143Z,13.82
2017-10-18T09:29:57.445Z,14.00
2017-10-18T09:32:25.715Z,13.90
2017-10-18T09:34:54.807Z,13.80
2017-10-18T09:37:23.846Z,13.82
2017-10-18T09:39:52.142Z,14.63
2017-10-18T09:42:21.192Z,13.50
2017-10-18T09:44:49.487Z,13.35
2017-10-18T09:47:18.534Z,13.57
2017-10-18T09:49:48.330Z,13.82
2017-10-18T09:52:16.610Z,14.60
2017-10-18T09:54:45.667Z,14.48
2017-10-18T09:57:13.946Z,14.75
2017-10-18T09:59:42.250Z,15.73
2017-10-18T10:02:10.528Z,14.10
2017-10-18T10:04:38.831Z,15.65
2017-10-18T10:07:07.106Z,14.50
2017-10-18T10:09:36.175Z,14.95
2017-10-18T10:12:05.226Z,14.55
2017-10-18T10:14:33.518Z,16.13
2017-10-18T10:17:02.567Z,14.90
2017-10-18T10:19:30.859Z,15.70
2017-10-18T10:21:59.903Z,15.00
2017-10-18T10:24:28.203Z,15.48
2017-10-18T10:26:57.243Z,15.00
2017-10-18T10:29:25.554Z,17.30
2017-10-18T10:31:53.837Z,14.07
2017-10-18T10:34:22.110Z,15.00
2017-10-18T10:36:50.411Z,14.52
2017-10-18T10:39:18.692Z,14.00
2017-10-18T10:41:47.767Z,13.90
2017-10-18T10:44:16.853Z,13.93
2017-10-18T10:46:45.160Z,14.07
2017-10-18T10:49:13.455Z,13.63
2017-10-18T10:51:41.768Z,13.57
2017-10-18T10:54:10.075Z,13.80
2017-10-18T10:56:38.376Z,13.85
2017-10-18T10:59:06.667Z,13.05
2017-10-18T11:01:34.952Z,13.62
2017-10-18T11:04:03.243Z,12.93
2017-10-18T11:06:32.283Z,13.47
2017-10-18T11:09:00.655Z,12.93
2017-10-18T11:11:28.938Z,13.15
2017-10-18T11:13:57.238Z,12.52
2017-10-18T11:16:25.510Z,13.80
2017-10-18T11:18:53.836Z,12.27
2017-10-18T11:21:23.476Z,12.98
2017-10-18T11:23:51.752Z,12.30
2017-10-18T11:26:20.052Z,12.73
2017-10-18T11:28:49.100Z,14.93
2017-10-18T11:31:17.405Z,13.20
2017-10-18T11:33:46.451Z,13.85
2017-10-18T11:36:14.759Z,12.60
2017-10-18T11:38:43.053Z,13.45
2017-10-18T11:41:11.347Z,11.68
2017-10-18T11:43:40.398Z,11.80
2017-10-18T11:46:08.695Z,12.63
2017-10-18T11:48:37.755Z,12.40
2017-10-18T11:51:06.051Z,13.23
2017-10-18T11:53:34.338Z,12.88
2017-10-18T11:56:02.637Z,12.93
2017-10-18T11:58:30.924Z,12.48
2017-10-18T12:01:00.028Z,12.75
2017-10-18T12:03:28.315Z,12.37
2017-10-18T12:05:59.604Z,12.77
2017-10-18T12:08:27.915Z,11.50
2017-10-18T12:10:56.198Z,12.23
2017-10-18T12:13:24.495Z,11.40
2017-10-18T12:15:52.779Z,11.60
2017-10-18T12:18:21.503Z,10.50
2017-10-18T12:20:50.556Z,12.40
2017-10-18T12:23:18.846Z,11.65
2017-10-18T12:25:47.911Z,10.93
2017-10-18T12:28:16.187Z,9.85
2017-10-18T12:30:45.262Z,10.13
2017-10-18T12:33:13.555Z,11.23
2017-10-18T12:35:41.859Z,10.07
2017-10-18T12:38:10.135Z,11.03
2017-10-18T12:40:38.423Z,9.60
2017-10-18T12:43:07.471Z,11.27
2017-10-18T12:45:35.768Z,10.63
2017-10-18T12:48:04.804Z,8.03
2017-10-18T12:50:33.106Z,8.13
2017-10-18T12:53:01.379Z,9.80
2017-10-18T12:55:30.427Z,9.80
2017-10-18T12:57:58.698Z,9.40
2017-10-18T13:00:26.992Z,8.47
2017-10-18T13:02:56.042Z,7.93
2017-10-18T13:05:24.342Z,8.60
2017-10-18T13:07:52.615Z,9.13
2017-10-18T13:10:20.891Z,7.77
2017-10-18T13:12:49.183Z,7.77
2017-10-18T13:15:17.459Z,7.30
2017-10-18T13:17:46.548Z,6.60
2017-10-18T13:20:14.823Z,6.50
2017-10-18T13:22:43.092Z,7.83
2017-10-18T13:25:11.372Z,7.47
2017-10-18T13:27:39.655Z,6.90
2017-10-18T13:30:07.937Z,6.87
2017-10-18T13:32:37.027Z,7.90
2017-10-18T13:35:06.073Z,7.70
2017-10-18T13:37:34.334Z,7.27
2017-10-18T13:40:02.631Z,8.43
2017-10-18T13:42:30.904Z,7.70
2017-10-18T13:44:59.203Z,7.27
2017-10-18T13:47:27.476Z,7.70
2017-10-18T13:49:55.758Z,8.03
2017-10-18T13:52:24.807Z,8.50
2017-10-18T13:54:53.095Z,6.87
2017-10-18T13:57:21.360Z,6.70
2017-10-18T13:59:50.464Z,6.00
2017-10-18T14:02:18.758Z,6.70
2017-10-18T14:04:47.047Z,5.80
2017-10-18T14:07:15.339Z,7.30
2017-10-18T14:09:43.652Z,6.40
2017-10-18T14:12:11.934Z,5.90
2017-10-18T14:14:40.239Z,6.20
2017-10-18T14:17:09.279Z,7.13
2017-10-18T14:19:37.554Z,7.73
2017-10-18T14:22:05.828Z,7.90
2017-10-18T14:24:34.931Z,9.13
2017-10-18T14:27:03.211Z,6.90
2017-10-18T14:29:31.506Z,7.03
2017-10-18T14:32:00.631Z,7.90
2017-10-18T14:34:28.908Z,6.30
2017-10-18T14:36:57.191Z,8.20
2017-10-18T14:39:25.462Z,5.63
2017-10-18T14:41:53.762Z,6.57
2017-10-18T14:44:22.047Z,6.45
2017-10-18T14:46:50.326Z,6.00
2017-10-18T14:49:18.618Z,5.85
2017-10-18T14:51:47.694Z,7.30
2017-10-18T14:54:15.983Z,7.90
2017-10-18T14:56:44.271Z,5.00
2017-10-18T14:59:12.574Z,5.97
2017-10-18T15:01:40.859Z,5.40
2017-10-18T15:04:09.907Z,7.00
2017-10-18T15:06:38.191Z,5.30
2017-10-18T15:09:07.244Z,6.30
2017-10-18T15:11:35.520Z,5.87
2017-10-18T15:14:03.822Z,6.40
2017-10-18T15:16:32.108Z,5.83
2017-10-18T15:19:00.425Z,6.10
2017-10-18T15:21:29.483Z,5.80
2017-10-18T15:23:57.778Z,5.50
2017-10-18T15:26:26.823Z,5.53
2017-10-18T15:28:55.091Z,5.93
2017-10-18T15:31:23.371Z,5.73
2017-10-18T15:33:51.651Z,5.67
2017-10-18T15:36:19.944Z,5.43
2017-10-18T15:38:48.219Z,5.15
2017-10-18T15:41:16.528Z,5.93
2017-10-18T15:43:44.806Z,5.43
2017-10-18T15:46:13.087Z,5.90
2017-10-18T15:48:41.353Z,4.73
2017-10-18T15:51:09.643Z,5.82
2017-10-18T15:53:37.921Z,6.43
2017-10-18T15:56:06.979Z,5.35
2017-10-18T15:58:35.256Z,5.78
2017-10-18T16:01:04.303Z,5.30
2017-10-18T16:03:32.600Z,6.18
2017-10-18T16:06:01.647Z,5.12
2017-10-18T16:08:29.923Z,6.10
2017-10-18T16:10:58.219Z,5.62
2017-10-18T16:13:26.490Z,6.43
2017-10-18T16:15:54.774Z,5.90
2017-10-18T16:18:23.051Z,5.85
2017-10-18T16:20:51.315Z,6.20
2017-10-18T16:23:19.608Z,5.15
2017-10-18T16:25:48.651Z,5.90
2017-10-18T16:28:16.938Z,6.10
2017-10-18T16:30:45.227Z,5.85
2017-10-18T16:33:13.546Z,6.82
2017-10-18T16:35:43.327Z,6.72
2017-10-18T16:38:11.623Z,6.20
2017-10-18T16:40:39.883Z,7.07
2017-10-18T16:43:08.941Z,6.03
2017-10-18T16:45:38.733Z,7.45
2017-10-18T16:48:07.018Z,7.07
2017-10-18T16:50:35.283Z,7.13
2017-10-18T16:53:03.601Z,6.40
2017-10-18T16:55:31.872Z,6.82
2017-10-18T16:58:00.990Z,6.60
2017-10-18T17:00:29.252Z,6.90
2017-10-18T17:02:58.640Z,6.37
2017-10-18T17:05:27.686Z,7.15
2017-10-18T17:07:55.950Z,6.40
2017-10-18T17:10:24.231Z,7.10
2017-10-18T17:12:52.500Z,6.87
2017-10-18T17:15:21.550Z,6.87
2017-10-18T17:17:49.811Z,6.72
2017-10-18T17:20:18.107Z,6.80
2017-10-18T17:22:47.151Z,7.17
2017-10-18T17:25:15.440Z,7.30
2017-10-18T17:27:43.715Z,7.18
2017-10-18T17:30:12.767Z,6.90
2017-10-18T17:32:41.058Z,7.55
2017-10-18T17:35:10.200Z,8.30
2017-10-18T17:37:38.484Z,6.68
2017-10-18T17:40:06.756Z,6.95
2017-10-18T17:42:35.819Z,8.32
2017-10-18T17:45:04.079Z,7.37
2017-10-18T17:47:32.403Z,9.00
2017-10-18T17:52:59.719Z,8.80
2017-10-18T17:55:27.996Z,7.70
2017-10-18T17:57:56.283Z,8.20
2017-10-18T18:00:24.546Z,7.97
2017-10-18T18:02:52.867Z,7.35
2017-10-18T18:05:21.136Z,8.23
2017-10-18T18:07:49.404Z,7.37
2017-10-18T18:10:17.695Z,7.32
2017-10-18T18:12:45.980Z,8.32
2017-10-18T18:15:15.065Z,8.80
2017-10-18T18:17:44.099Z,8.00
2017-10-18T18:20:12.504Z,8.10
2017-10-18T18:22:41.548Z,8.60
2017-10-18T18:25:09.845Z,8.05
2017-10-18T18:27:38.883Z,7.85
2017-10-18T18:30:07.624Z,8.85
2017-10-18T18:32:36.124Z,7.70
2017-10-18T18:35:04.424Z,7.32
2017-10-18T18:37:33.475Z,7.40
2017-10-18T18:40:01.746Z,8.95
2017-10-18T18:42:30.040Z,7.30
2017-10-18T18:44:59.079Z,9.00
2017-10-18T18:47:27.439Z,8.05
2017-10-18T18:49:55.711Z,9.20
2017-10-18T18:52:23.998Z,9.35
2017-10-18T18:54:53.036Z,8.53
2017-10-18T18:57:21.315Z,6.27
2017-10-18T18:59:51.086Z,8.00
2017-10-18T19:02:19.370Z,8.10
2017-10-18T19:04:47.650Z,8.20
2017-10-18T19:07:16.705Z,8.40
2017-10-18T19:09:45.003Z,7.78
2017-10-18T19:12:14.047Z,8.27
2017-10-18T19:14:42.319Z,7.53
2017-10-18T19:17:10.598Z,6.82
2017-10-18T19:19:39.644Z,6.80
2017-10-18T19:22:08.126Z,7.37
2017-10-18T19:24:36.394Z,7.35
2017-10-18T19:27:04.660Z,7.35
2017-10-18T19:29:33.723Z,7.15
2017-10-18T19:32:01.983Z,6.90
2017-10-18T19:34:30.267Z,8.03
2017-10-18T19:36:59.346Z,7.85
2017-10-18T19:39:27.615Z,7.50
2017-10-18T19:41:56.684Z,8.45
2017-10-18T19:44:25.754Z,7.68
2017-10-18T19:46:54.016Z,7.82
2017-10-18T19:49:22.284Z,7.23
2017-10-18T19:51:51.335Z,8.07
2017-10-18T19:54:19.614Z,8.30
2017-10-18T19:56:47.903Z,7.37
2017-10-18T19:59:16.162Z,7.05
2017-10-18T20:01:44.431Z,7.78
2017-10-18T20:04:12.756Z,8.50
2017-10-18T20:06:41.039Z,8.00
2017-10-18T20:09:10.211Z,7.40
2017-10-18T20:11:39.251Z,7.70
2017-10-18T20:14:07.568Z,7.53
2017-10-18T20:16:36.606Z,7.93
2017-10-18T20:19:04.873Z,8.38
2017-10-18T20:21:33.145Z,7.93
2017-10-18T20:24:01.436Z,8.20
2017-10-18T20:26:29.699Z,8.38
2017-10-18T20:28:57.994Z,7.75
2017-10-18T20:31:26.293Z,7.33
2017-10-18T20:33:54.574Z,9.32
2017-10-18T20:36:22.847Z,8.55
2017-10-18T20:38:51.171Z,7.40
2017-10-18T20:41:19.435Z,8.32
2017-10-18T20:43:49.216Z,8.88
2017-10-18T20:46:17.508Z,7.70
2017-10-18T20:48:46.540Z,8.25
2017-10-18T20:51:14.894Z,8.90
2017-10-18T20:53:43.619Z,7.57
2017-10-18T20:56:12.786Z,7.20
2017-10-18T20:58:41.062Z,8.13
2017-10-18T21:01:10.122Z,8.32
2017-10-18T21:03:38.393Z,8.82
2017-10-18T21:06:08.188Z,7.57
2017-10-18T21:08:36.460Z,7.72
2017-10-18T21:11:05.514Z,8.50
2017-10-18T21:13:33.788Z,8.13
2017-10-18T21:16:02.079Z,8.45
2017-10-18T21:18:30.351Z,8.00
2017-10-18T21:20:59.439Z,8.13
2017-10-18T21:23:28.500Z,7.05
2017-10-18T21:25:58.287Z,8.93
2017-10-18T21:28:26.578Z,7.43
2017-10-18T21:30:55.763Z,8.30
2017-10-18T21:33:24.806Z,8.65
2017-10-18T21:35:53.071Z,8.10
2017-10-18T21:38:21.360Z,8.30
2017-10-18T21:40:50.395Z,8.45
2017-10-18T21:43:18.675Z,8.02
2017-10-18T21:45:46.935Z,7.45
2017-10-18T21:48:16.294Z,9.00
2017-10-18T21:50:44.567Z,8.40
2017-10-18T21:53:12.835Z,8.65
2017-10-18T21:55:41.119Z,7.27
2017-10-18T21:58:09.375Z,7.43
2017-10-18T22:00:38.425Z,6.53
2017-10-18T22:03:06.686Z,9.13
2017-10-18T22:05:34.958Z,8.40
2017-10-18T22:08:03.220Z,9.00
2017-10-18T22:10:31.521Z,8.77
2017-10-18T22:13:00.589Z,6.03
2017-10-18T22:15:29.649Z,8.10
2017-10-18T22:17:58.131Z,7.80
2017-10-18T22:20:27.243Z,7.00
2017-10-18T22:22:55.539Z,7.32
2017-10-18T22:25:23.805Z,7.85
2017-10-18T22:27:52.132Z,6.45
2017-10-18T22:30:20.579Z,7.20
2017-10-18T22:32:49.856Z,7.12
2017-10-18T22:35:18.965Z,7.87
2017-10-18T22:37:47.396Z,6.90
2017-10-18T22:40:15.696Z,8.27
2017-10-18T22:42:43.971Z,6.97
2017-10-18T22:45:14.526Z,7.00
2017-10-18T22:47:42.828Z,7.35
2017-10-18T22:50:11.087Z,7.30
2017-10-18T22:52:39.342Z,7.55
2017-10-18T22:55:07.630Z,7.25
2017-10-18T22:57:35.887Z,7.97
2017-10-18T23:00:04.169Z,6.87
2017-10-18T23:02:32.443Z,7.28
2017-10-18T23:05:00.726Z,7.65
2017-10-18T23:07:29.751Z,6.75
2017-10-18T23:09:58.040Z,6.97
2017-10-18T23:12:26.312Z,7.65
2017-10-18T23:14:54.583Z,7.15
2017-10-18T23:17:23.623Z,6.70
2017-10-18T23:19:51.900Z,7.35
2017-10-18T23:22:20.159Z,7.40
2017-10-18T23:24:48.455Z,6.97
2017-10-18T23:27:16.732Z,8.20
2017-10-18T23:29:45.038Z,7.68
2017-10-18T23:32:13.283Z,7.40
2017-10-18T23:34:41.538Z,7.97
2017-10-18T23:37:09.827Z,7.80
2017-10-18T23:39:38.079Z,7.80
2017-10-18T23:42:06.363Z,7.62
2017-10-18T23:44:34.623Z,6.70
2017-10-18T23:47:02.903Z,7.00
2017-10-18T23:49:31.171Z,7.35
2017-10-18T23:51:59.447Z,6.82
2017-10-18T23:54:27.752Z,6.50
2017-10-18T23:56:55.995Z,6.55
2017-10-18T23:59:24.274Z,6.75
